TTW321 RJTT-RJFO
Flight info
| Callsign | TTW321 |
|---|---|
| Flight time | N/A |
| Altitude | 28000 |
| Route | NINOX Y28 MARCO Y45 YANAI BAIEN TFE |
| Aircraft | A320/M-SDE1E2FGHIRWY/LB1 |
Departure
| Time | 2026-02-17 03:26 |
|---|---|
| Airport | Tokyo Haneda International Airport (RJTT) |
Arrival
| Time | N/A |
|---|---|
| Airport | Oita Airport (RJFO) |
| Time | Latitude | Longitude | Altitude | Speed | Heading |
|---|---|---|---|---|---|
| 2026-02-17 03:07 | 35.54945 | 139.76899 | 68 ft | 0 kts | 149° |
| 2026-02-17 03:18 | 35.54947 | 139.76897 | 59 ft | 2 kts | 149° |
| 2026-02-17 03:18 | 35.54963 | 139.76886 | 60 ft | 3 kts | 150° |
| 2026-02-17 03:18 | 35.54980 | 139.76873 | 62 ft | 3 kts | 150° |
| 2026-02-17 03:19 | 35.55012 | 139.76852 | 64 ft | 3 kts | 189° |
| 2026-02-17 03:19 | 35.55028 | 139.76862 | 63 ft | 3 kts | 226° |
| 2026-02-17 03:19 | 35.55040 | 139.76878 | 58 ft | 1 kts | 238° |
| 2026-02-17 03:19 | 35.55041 | 139.76880 | 58 ft | 0 kts | 238° |
| 2026-02-17 03:22 | 35.55039 | 139.76876 | 58 ft | 2 kts | 238° |
| 2026-02-17 03:23 | 35.54995 | 139.76789 | 65 ft | 8 kts | 239° |
| 2026-02-17 03:23 | 35.54962 | 139.76720 | 60 ft | 10 kts | 240° |
| 2026-02-17 03:23 | 35.54923 | 139.76636 | 60 ft | 12 kts | 240° |
| 2026-02-17 03:23 | 35.54875 | 139.76538 | 67 ft | 14 kts | 238° |
| 2026-02-17 03:24 | 35.54866 | 139.76423 | 63 ft | 15 kts | 295° |
| 2026-02-17 03:24 | 35.54837 | 139.76301 | 63 ft | 16 kts | 246° |
| 2026-02-17 03:24 | 35.54878 | 139.76197 | 65 ft | 15 kts | 306° |
| 2026-02-17 03:24 | 35.54934 | 139.76152 | 63 ft | 9 kts | 28° |
| 2026-02-17 03:25 | 35.54943 | 139.76159 | 61 ft | 0 kts | 35° |
| 2026-02-17 03:25 | 35.55112 | 139.76308 | 65 ft | 65 kts | 35° |
| 2026-02-17 03:25 | 35.55645 | 139.76765 | 59 ft | 119 kts | 35° |
| 2026-02-17 03:25 | 35.56411 | 139.77427 | 316 ft | 140 kts | 36° |
| 2026-02-17 03:26 | 35.57194 | 139.78151 | 909 ft | 141 kts | 39° |
| 2026-02-17 03:26 | 35.57707 | 139.79209 | 1276 ft | 159 kts | 80° |
| 2026-02-17 03:26 | 35.57537 | 139.80649 | 1539 ft | 184 kts | 103° |
| 2026-02-17 03:27 | 35.56738 | 139.84012 | 2101 ft | 231 kts | 103° |
| 2026-02-17 03:27 | 35.56274 | 139.85987 | 2647 ft | 247 kts | 104° |
| 2026-02-17 03:27 | 35.55792 | 139.88032 | 3560 ft | 250 kts | 104° |
| 2026-02-17 03:27 | 35.55307 | 139.90089 | 4475 ft | 253 kts | 106° |
| 2026-02-17 03:28 | 35.54563 | 139.92071 | 5272 ft | 260 kts | 128° |
| 2026-02-17 03:28 | 35.53270 | 139.93609 | 6115 ft | 260 kts | 150° |
| 2026-02-17 03:28 | 35.51628 | 139.94476 | 7007 ft | 257 kts | 171° |
| 2026-02-17 03:28 | 35.49854 | 139.94592 | 7787 ft | 257 kts | 191° |
| 2026-02-17 03:29 | 35.48111 | 139.94084 | 8548 ft | 259 kts | 204° |
| 2026-02-17 03:29 | 35.46574 | 139.92944 | 9313 ft | 260 kts | 224° |
| 2026-02-17 03:29 | 35.45458 | 139.91199 | 10096 ft | 262 kts | 244° |
| 2026-02-17 03:29 | 35.44893 | 139.89066 | 10697 ft | 271 kts | 259° |
| 2026-02-17 03:30 | 35.44549 | 139.86693 | 10902 ft | 294 kts | 260° |
| 2026-02-17 03:30 | 35.44204 | 139.84123 | 11072 ft | 316 kts | 261° |
| 2026-02-17 03:30 | 35.43849 | 139.81421 | 11580 ft | 324 kts | 261° |
| 2026-02-17 03:31 | 35.43129 | 139.75936 | 12960 ft | 327 kts | 261° |
| 2026-02-17 03:31 | 35.42935 | 139.73157 | 13706 ft | 328 kts | 271° |
| 2026-02-17 03:31 | 35.43215 | 139.70401 | 14384 ft | 330 kts | 282° |
| 2026-02-17 03:31 | 35.43897 | 139.67675 | 15026 ft | 332 kts | 285° |
| 2026-02-17 03:32 | 35.44610 | 139.64974 | 15604 ft | 334 kts | 285° |
| 2026-02-17 03:32 | 35.45313 | 139.62286 | 16162 ft | 336 kts | 285° |
| 2026-02-17 03:32 | 35.46026 | 139.59541 | 16753 ft | 338 kts | 285° |
| 2026-02-17 03:32 | 35.46739 | 139.56786 | 17328 ft | 340 kts | 285° |
| 2026-02-17 03:33 | 35.47460 | 139.54015 | 17907 ft | 342 kts | 285° |
| 2026-02-17 03:33 | 35.48171 | 139.51224 | 18484 ft | 343 kts | 282° |
| 2026-02-17 03:33 | 35.48548 | 139.48343 | 18989 ft | 343 kts | 272° |
| 2026-02-17 03:33 | 35.48661 | 139.45414 | 19536 ft | 344 kts | 272° |
| 2026-02-17 03:34 | 35.48775 | 139.42478 | 20083 ft | 345 kts | 272° |
| 2026-02-17 03:34 | 35.48893 | 139.39528 | 20627 ft | 347 kts | 272° |
| 2026-02-17 03:34 | 35.49012 | 139.36572 | 21154 ft | 348 kts | 272° |
| 2026-02-17 03:35 | 35.49212 | 139.31635 | 21984 ft | 350 kts | 272° |
| 2026-02-17 03:35 | 35.49335 | 139.28646 | 22470 ft | 351 kts | 272° |
| 2026-02-17 03:35 | 35.49454 | 139.25647 | 22972 ft | 353 kts | 271° |
| 2026-02-17 03:35 | 35.49610 | 139.21612 | 23597 ft | 355 kts | 271° |
| 2026-02-17 03:36 | 35.49688 | 139.19608 | 23864 ft | 356 kts | 272° |
| 2026-02-17 03:36 | 35.49795 | 139.16571 | 24269 ft | 357 kts | 269° |
| 2026-02-17 03:36 | 35.49679 | 139.13531 | 24651 ft | 357 kts | 266° |
| 2026-02-17 03:36 | 35.49530 | 139.10491 | 25077 ft | 357 kts | 266° |
| 2026-02-17 03:37 | 35.49380 | 139.07447 | 25443 ft | 358 kts | 266° |
| 2026-02-17 03:37 | 35.49230 | 139.04396 | 25872 ft | 358 kts | 266° |
| 2026-02-17 03:37 | 35.49082 | 139.01350 | 26281 ft | 358 kts | 266° |
| 2026-02-17 03:37 | 35.48933 | 138.98291 | 26668 ft | 359 kts | 266° |
| 2026-02-17 03:38 | 35.48784 | 138.95229 | 27061 ft | 359 kts | 266° |
| 2026-02-17 03:38 | 35.48633 | 138.92169 | 27421 ft | 360 kts | 266° |
| 2026-02-17 03:38 | 35.48479 | 138.89112 | 27943 ft | 357 kts | 266° |
| 2026-02-17 03:39 | 35.48178 | 138.83056 | 28179 ft | 357 kts | 266° |
| 2026-02-17 03:39 | 35.48026 | 138.80011 | 28149 ft | 358 kts | 266° |
| 2026-02-17 03:39 | 35.47720 | 138.73921 | 28150 ft | 358 kts | 266° |
| 2026-02-17 03:40 | 35.47401 | 138.67824 | 28136 ft | 358 kts | 266° |
| 2026-02-17 03:40 | 35.47083 | 138.61731 | 28125 ft | 358 kts | 266° |
| 2026-02-17 03:41 | 35.46768 | 138.55642 | 28116 ft | 358 kts | 266° |
| 2026-02-17 03:41 | 35.46445 | 138.49549 | 28109 ft | 358 kts | 266° |
| 2026-02-17 03:42 | 35.46117 | 138.43470 | 28091 ft | 357 kts | 266° |
| 2026-02-17 03:43 | 35.45634 | 138.34568 | 28089 ft | 357 kts | 266° |
| 2026-02-17 03:43 | 35.45306 | 138.28538 | 28110 ft | 357 kts | 265° |
| 2026-02-17 03:44 | 35.44962 | 138.22455 | 28100 ft | 359 kts | 265° |
| 2026-02-17 03:44 | 35.44609 | 138.16367 | 28084 ft | 358 kts | 265° |
| 2026-02-17 03:45 | 35.44275 | 138.10280 | 28096 ft | 358 kts | 266° |
| 2026-02-17 03:45 | 35.43936 | 138.04198 | 28089 ft | 357 kts | 265° |
| 2026-02-17 03:46 | 35.43582 | 137.98126 | 28062 ft | 357 kts | 265° |
| 2026-02-17 03:46 | 35.43224 | 137.92055 | 28074 ft | 357 kts | 265° |
| 2026-02-17 03:47 | 35.42689 | 137.82939 | 28075 ft | 357 kts | 265° |
| 2026-02-17 03:47 | 35.42328 | 137.76860 | 28091 ft | 357 kts | 265° |
| 2026-02-17 03:48 | 35.41888 | 137.70801 | 28091 ft | 357 kts | 264° |
| 2026-02-17 03:49 | 35.41181 | 137.61701 | 28092 ft | 358 kts | 264° |
| 2026-02-17 03:49 | 35.40617 | 137.55649 | 28081 ft | 357 kts | 259° |
| 2026-02-17 03:50 | 35.39355 | 137.49731 | 28091 ft | 359 kts | 257° |
| 2026-02-17 03:50 | 35.38065 | 137.43820 | 28097 ft | 359 kts | 257° |
| 2026-02-17 03:51 | 35.36136 | 137.34987 | 28098 ft | 359 kts | 257° |
| 2026-02-17 03:51 | 35.34839 | 137.29068 | 28104 ft | 360 kts | 257° |
| 2026-02-17 03:52 | 35.33535 | 137.23149 | 28110 ft | 360 kts | 257° |
| 2026-02-17 03:52 | 35.32230 | 137.17229 | 28112 ft | 360 kts | 257° |
| 2026-02-17 03:53 | 35.30924 | 137.11307 | 28149 ft | 360 kts | 257° |
| 2026-02-17 03:53 | 35.29613 | 137.05394 | 28130 ft | 360 kts | 257° |
| 2026-02-17 03:54 | 35.28305 | 136.99481 | 28126 ft | 360 kts | 257° |
| 2026-02-17 03:55 | 35.26336 | 136.90627 | 28112 ft | 360 kts | 257° |
| 2026-02-17 03:55 | 35.25018 | 136.84723 | 28112 ft | 360 kts | 257° |
| 2026-02-17 03:56 | 35.23689 | 136.78818 | 28115 ft | 360 kts | 256° |
| 2026-02-17 03:56 | 35.22355 | 136.72922 | 28099 ft | 360 kts | 257° |
| 2026-02-17 03:57 | 35.21032 | 136.67050 | 28111 ft | 361 kts | 257° |
| 2026-02-17 03:57 | 35.19699 | 136.61136 | 28105 ft | 361 kts | 256° |
| 2026-02-17 03:58 | 35.18354 | 136.55221 | 28089 ft | 361 kts | 256° |
| 2026-02-17 03:58 | 35.17010 | 136.49306 | 28095 ft | 361 kts | 257° |
| 2026-02-17 03:59 | 35.14997 | 136.40438 | 28104 ft | 362 kts | 256° |
| 2026-02-17 03:59 | 35.13640 | 136.34509 | 28108 ft | 363 kts | 257° |
| 2026-02-17 04:00 | 35.12280 | 136.28579 | 28114 ft | 363 kts | 256° |
| 2026-02-17 04:00 | 35.10920 | 136.22647 | 28157 ft | 362 kts | 257° |
| 2026-02-17 04:01 | 35.09578 | 136.16736 | 28146 ft | 361 kts | 257° |
| 2026-02-17 04:01 | 35.08235 | 136.10833 | 28145 ft | 361 kts | 257° |
| 2026-02-17 04:02 | 35.06882 | 136.04938 | 28139 ft | 360 kts | 256° |
| 2026-02-17 04:03 | 35.04849 | 135.96103 | 28133 ft | 360 kts | 256° |
| 2026-02-17 04:03 | 35.03486 | 135.90224 | 28139 ft | 360 kts | 256° |
| 2026-02-17 04:04 | 35.02113 | 135.84353 | 28129 ft | 359 kts | 256° |
| 2026-02-17 04:04 | 35.00854 | 135.78492 | 28139 ft | 359 kts | 259° |
| 2026-02-17 04:05 | 34.99788 | 135.72542 | 28123 ft | 359 kts | 259° |
| 2026-02-17 04:05 | 34.98733 | 135.66593 | 28130 ft | 359 kts | 259° |
| 2026-02-17 04:06 | 34.97643 | 135.60648 | 28139 ft | 359 kts | 259° |
| 2026-02-17 04:06 | 34.96535 | 135.54714 | 28122 ft | 359 kts | 258° |
| 2026-02-17 04:07 | 34.94863 | 135.45800 | 28142 ft | 359 kts | 258° |
| 2026-02-17 04:07 | 34.93742 | 135.39871 | 28137 ft | 359 kts | 258° |
| 2026-02-17 04:08 | 34.92618 | 135.33947 | 28113 ft | 359 kts | 258° |
| 2026-02-17 04:08 | 34.91469 | 135.28028 | 28116 ft | 359 kts | 258° |
| 2026-02-17 04:09 | 34.90305 | 135.22106 | 28121 ft | 359 kts | 258° |
| 2026-02-17 04:09 | 34.89133 | 135.16193 | 28127 ft | 359 kts | 258° |
| 2026-02-17 04:10 | 34.87961 | 135.10280 | 28144 ft | 359 kts | 258° |
| 2026-02-17 04:11 | 34.86223 | 135.01453 | 28144 ft | 359 kts | 258° |
| 2026-02-17 04:11 | 34.84528 | 134.92578 | 28137 ft | 359 kts | 258° |
| 2026-02-17 04:12 | 34.83434 | 134.86658 | 28141 ft | 358 kts | 258° |
| 2026-02-17 04:12 | 34.82328 | 134.80738 | 28143 ft | 358 kts | 258° |
| 2026-02-17 04:13 | 34.81212 | 134.74827 | 28129 ft | 359 kts | 258° |
| 2026-02-17 04:13 | 34.80091 | 134.68911 | 28143 ft | 359 kts | 258° |
| 2026-02-17 04:14 | 34.78968 | 134.62992 | 28146 ft | 359 kts | 258° |
| 2026-02-17 04:15 | 34.77264 | 134.54121 | 28174 ft | 359 kts | 258° |
| 2026-02-17 04:15 | 34.76119 | 134.48221 | 28142 ft | 358 kts | 258° |
| 2026-02-17 04:16 | 34.74968 | 134.42319 | 28144 ft | 359 kts | 258° |
| 2026-02-17 04:16 | 34.73839 | 134.36412 | 28164 ft | 359 kts | 258° |
| 2026-02-17 04:17 | 34.72721 | 134.30506 | 28163 ft | 358 kts | 258° |
| 2026-02-17 04:17 | 34.71597 | 134.24650 | 28164 ft | 358 kts | 258° |
| 2026-02-17 04:18 | 34.70461 | 134.18751 | 28146 ft | 358 kts | 258° |
| 2026-02-17 04:18 | 34.69331 | 134.12861 | 28151 ft | 358 kts | 258° |
| 2026-02-17 04:19 | 34.67626 | 134.04025 | 28111 ft | 358 kts | 258° |
| 2026-02-17 04:19 | 34.66132 | 133.98248 | 28126 ft | 360 kts | 252° |
| 2026-02-17 04:20 | 34.64377 | 133.92559 | 28085 ft | 360 kts | 252° |
| 2026-02-17 04:20 | 34.62628 | 133.86871 | 28095 ft | 360 kts | 252° |
| 2026-02-17 04:21 | 34.60875 | 133.81186 | 28126 ft | 360 kts | 252° |
| 2026-02-17 04:21 | 34.59118 | 133.75505 | 28129 ft | 360 kts | 252° |
| 2026-02-17 04:22 | 34.57355 | 133.69824 | 28096 ft | 360 kts | 252° |
| 2026-02-17 04:23 | 34.54703 | 133.61313 | 28150 ft | 359 kts | 252° |
| 2026-02-17 04:23 | 34.52891 | 133.55699 | 28160 ft | 360 kts | 251° |
| 2026-02-17 04:24 | 34.51020 | 133.50063 | 28159 ft | 360 kts | 251° |
| 2026-02-17 04:24 | 34.49151 | 133.44430 | 28142 ft | 360 kts | 251° |
| 2026-02-17 04:25 | 34.47293 | 133.38799 | 28167 ft | 360 kts | 251° |
| 2026-02-17 04:25 | 34.46076 | 133.35025 | 28169 ft | 359 kts | 252° |